sensor_id;sensor_type;location;lat;lon;timestamp;pressure;altitude;pressure_sealevel;temperature;humidity
26807;BME280;14380;49.910;6.792;2023-04-25T00:00:53;98208.88;;;8.50;100.00
26807;BME280;14380;49.910;6.792;2023-04-25T00:03:20;98204.47;;;8.50;100.00
26807;BME280;14380;49.910;6.792;2023-04-25T00:05:47;98207.00;;;8.52;100.00
26807;BME280;14380;49.910;6.792;2023-04-25T00:08:14;98202.66;;;8.51;100.00
26807;BME280;14380;49.910;6.792;2023-04-25T00:10:41;98203.41;;;8.69;100.00
26807;BME280;14380;49.910;6.792;2023-04-25T00:13:08;98203.75;;;8.62;100.00
26807;BME280;14380;49.910;6.792;2023-04-25T00:15:36;98201.47;;;8.72;100.00
26807;BME280;14380;49.910;6.792;2023-04-25T00:18:04;98202.44;;;8.55;100.00
26807;BME280;14380;49.910;6.792;2023-04-25T00:20:30;98201.31;;;8.59;100.00
26807;BME280;14380;49.910;6.792;2023-04-25T00:22:57;98202.91;;;8.46;100.00
26807;BME280;14380;49.910;6.792;2023-04-25T00:25:24;98214.22;;;8.64;100.00
26807;BME280;14380;49.910;6.792;2023-04-25T00:27:52;98204.28;;;8.69;100.00
26807;BME280;14380;49.910;6.792;2023-04-25T00:30:18;98194.25;;;8.44;100.00
26807;BME280;14380;49.910;6.792;2023-04-25T00:32:45;98200.72;;;8.38;100.00
26807;BME280;14380;49.910;6.792;2023-04-25T00:35:12;98191.34;;;8.32;100.00
26807;BME280;14380;49.910;6.792;2023-04-25T00:37:38;98196.44;;;8.36;100.00
26807;BME280;14380;49.910;6.792;2023-04-25T00:40:07;98190.75;;;8.27;100.00
26807;BME280;14380;49.910;6.792;2023-04-25T00:42:34;98196.28;;;8.39;100.00
26807;BME280;14380;49.910;6.792;2023-04-25T00:45:05;98195.78;;;8.32;100.00
26807;BME280;14380;49.910;6.792;2023-04-25T00:47:32;98183.41;;;8.34;100.00
26807;BME280;14380;49.910;6.792;2023-04-25T00:49:59;98186.94;;;8.17;100.00
26807;BME280;14380;49.910;6.792;2023-04-25T00:52:25;98185.25;;;8.16;100.00
26807;BME280;14380;49.910;6.792;2023-04-25T00:54:52;98178.53;;;8.10;100.00
26807;BME280;14380;49.910;6.792;2023-04-25T00:57:19;98173.06;;;8.15;100.00
26807;BME280;14380;49.910;6.792;2023-04-25T00:59:45;98170.47;;;8.29;100.00
26807;BME280;14380;49.910;6.792;2023-04-25T01:02:13;98178.66;;;8.25;100.00
26807;BME280;14380;49.910;6.792;2023-04-25T01:04:40;98178.31;;;8.15;100.00
26807;BME280;14380;49.910;6.792;2023-04-25T01:07:07;98177.19;;;8.35;100.00
26807;BME280;14380;49.910;6.792;2023-04-25T01:09:34;98182.38;;;8.21;100.00
26807;BME280;14380;49.910;6.792;2023-04-25T01:12:01;98182.63;;;8.16;100.00
26807;BME280;14380;49.910;6.792;2023-04-25T01:14:28;98187.97;;;8.30;100.00
26807;BME280;14380;49.910;6.792;2023-04-25T01:16:55;98179.25;;;8.14;100.00
26807;BME280;14380;49.910;6.792;2023-04-25T01:19:24;98183.31;;;8.19;100.00
26807;BME280;14380;49.910;6.792;2023-04-25T01:21:52;98179.03;;;8.17;100.00
26807;BME280;14380;49.910;6.792;2023-04-25T01:24:18;98171.41;;;8.12;100.00
26807;BME280;14380;49.910;6.792;2023-04-25T01:26:45;98174.75;;;8.16;100.00
26807;BME280;14380;49.910;6.792;2023-04-25T01:29:15;98178.03;;;8.03;100.00
26807;BME280;14380;49.910;6.792;2023-04-25T01:31:42;98175.91;;;8.10;100.00
26807;BME280;14380;49.910;6.792;2023-04-25T01:34:09;98174.38;;;7.90;100.00
26807;BME280;14380;49.910;6.792;2023-04-25T01:36:35;98163.97;;;8.04;100.00
26807;BME280;14380;49.910;6.792;2023-04-25T01:39:04;98164.72;;;8.07;100.00
26807;BME280;14380;49.910;6.792;2023-04-25T01:41:31;98155.53;;;7.98;100.00
26807;BME280;14380;49.910;6.792;2023-04-25T01:44:00;98160.19;;;7.77;100.00
26807;BME280;14380;49.910;6.792;2023-04-25T01:46:27;98164.56;;;7.94;100.00
26807;BME280;14380;49.910;6.792;2023-04-25T01:48:54;98157.16;;;8.00;100.00
26807;BME280;14380;49.910;6.792;2023-04-25T01:51:20;98166.91;;;7.98;100.00
26807;BME280;14380;49.910;6.792;2023-04-25T01:53:47;98162.25;;;7.87;100.00
26807;BME280;14380;49.910;6.792;2023-04-25T01:56:15;98165.03;;;7.84;100.00
26807;BME280;14380;49.910;6.792;2023-04-25T01:58:41;98167.69;;;8.00;100.00
26807;BME280;14380;49.910;6.792;2023-04-25T02:01:08;98167.56;;;7.86;100.00
26807;BME280;14380;49.910;6.792;2023-04-25T02:03:36;98165.38;;;7.78;100.00
26807;BME280;14380;49.910;6.792;2023-04-25T02:06:03;98167.19;;;7.60;100.00
26807;BME280;14380;49.910;6.792;2023-04-25T02:08:29;98172.13;;;7.66;100.00
26807;BME280;14380;49.910;6.792;2023-04-25T02:10:56;98169.72;;;7.62;100.00
26807;BME280;14380;49.910;6.792;2023-04-25T02:13:24;98172.84;;;7.52;100.00
26807;BME280;14380;49.910;6.792;2023-04-25T02:15:51;98164.22;;;7.50;100.00
26807;BME280;14380;49.910;6.792;2023-04-25T02:18:17;98167.97;;;7.62;100.00
26807;BME280;14380;49.910;6.792;2023-04-25T02:20:44;98160.16;;;7.61;100.00
26807;BME280;14380;49.910;6.792;2023-04-25T02:23:11;98167.78;;;7.49;100.00
26807;BME280;14380;49.910;6.792;2023-04-25T02:25:38;98171.47;;;7.45;100.00
26807;BME280;14380;49.910;6.792;2023-04-25T02:28:04;98163.50;;;7.47;100.00
26807;BME280;14380;49.910;6.792;2023-04-25T02:30:32;98162.00;;;7.58;100.00
26807;BME280;14380;49.910;6.792;2023-04-25T02:32:59;98162.09;;;7.57;100.00
26807;BME280;14380;49.910;6.792;2023-04-25T02:35:25;98169.38;;;7.34;100.00
26807;BME280;14380;49.910;6.792;2023-04-25T02:37:52;98168.78;;;7.29;100.00
26807;BME280;14380;49.910;6.792;2023-04-25T02:40:19;98177.44;;;7.65;100.00
26807;BME280;14380;49.910;6.792;2023-04-25T02:42:45;98179.47;;;7.59;100.00
26807;BME280;14380;49.910;6.792;2023-04-25T02:45:12;98183.88;;;7.59;100.00
26807;BME280;14380;49.910;6.792;2023-04-25T02:47:40;98177.66;;;7.44;100.00
26807;BME280;14380;49.910;6.792;2023-04-25T02:50:07;98180.81;;;7.51;100.00
26807;BME280;14380;49.910;6.792;2023-04-25T02:52:34;98176.94;;;7.40;100.00
26807;BME280;14380;49.910;6.792;2023-04-25T02:55:00;98175.41;;;7.36;100.00
26807;BME280;14380;49.910;6.792;2023-04-25T02:57:27;98169.66;;;7.63;100.00
26807;BME280;14380;49.910;6.792;2023-04-25T02:59:54;98170.59;;;7.62;100.00
26807;BME280;14380;49.910;6.792;2023-04-25T03:02:20;98168.09;;;7.43;100.00
26807;BME280;14380;49.910;6.792;2023-04-25T03:04:48;98174.31;;;7.58;100.00
26807;BME280;14380;49.910;6.792;2023-04-25T03:07:15;98173.25;;;7.44;100.00
26807;BME280;14380;49.910;6.792;2023-04-25T03:09:41;98162.72;;;7.62;100.00
26807;BME280;14380;49.910;6.792;2023-04-25T03:12:08;98171.31;;;7.48;100.00
26807;BME280;14380;49.910;6.792;2023-04-25T03:14:35;98166.91;;;7.49;100.00
26807;BME280;14380;49.910;6.792;2023-04-25T03:17:02;98162.16;;;7.55;100.00
26807;BME280;14380;49.910;6.792;2023-04-25T03:19:28;98171.69;;;7.58;100.00
26807;BME280;14380;49.910;6.792;2023-04-25T03:21:57;98164.66;;;7.74;100.00
26807;BME280;14380;49.910;6.792;2023-04-25T03:24:23;98159.84;;;7.83;100.00
26807;BME280;14380;49.910;6.792;2023-04-25T03:26:50;98167.97;;;7.62;100.00
26807;BME280;14380;49.910;6.792;2023-04-25T03:29:16;98161.59;;;7.50;100.00
26807;BME280;14380;49.910;6.792;2023-04-25T03:31:43;98167.38;;;7.39;100.00
26807;BME280;14380;49.910;6.792;2023-04-25T03:34:09;98164.78;;;7.55;100.00
26807;BME280;14380;49.910;6.792;2023-04-25T03:36:36;98165.56;;;7.57;100.00
26807;BME280;14380;49.910;6.792;2023-04-25T03:39:04;98167.56;;;7.70;100.00
26807;BME280;14380;49.910;6.792;2023-04-25T03:41:31;98156.69;;;7.60;100.00
26807;BME280;14380;49.910;6.792;2023-04-25T03:43:57;98160.28;;;7.75;100.00
26807;BME280;14380;49.910;6.792;2023-04-25T03:46:24;98165.81;;;7.53;100.00
26807;BME280;14380;49.910;6.792;2023-04-25T03:48:51;98169.09;;;7.74;100.00
26807;BME280;14380;49.910;6.792;2023-04-25T03:51:17;98166.72;;;7.69;100.00
26807;BME280;14380;49.910;6.792;2023-04-25T03:53:44;98160.78;;;7.82;100.00
26807;BME280;14380;49.910;6.792;2023-04-25T03:56:11;98165.47;;;7.93;100.00
26807;BME280;14380;49.910;6.792;2023-04-25T03:58:38;98168.59;;;7.83;100.00
26807;BME280;14380;49.910;6.792;2023-04-25T04:01:05;98164.09;;;7.69;100.00
26807;BME280;14380;49.910;6.792;2023-04-25T04:03:33;98175.88;;;7.78;100.00
26807;BME280;14380;49.910;6.792;2023-04-25T04:06:06;98180.38;;;7.76;100.00
26807;BME280;14380;49.910;6.792;2023-04-25T04:08:35;98174.88;;;7.97;100.00
26807;BME280;14380;49.910;6.792;2023-04-25T04:11:02;98172.16;;;7.82;100.00
26807;BME280;14380;49.910;6.792;2023-04-25T04:13:30;98180.66;;;7.87;100.00
26807;BME280;14380;49.910;6.792;2023-04-25T04:15:56;98180.91;;;7.99;100.00
26807;BME280;14380;49.910;6.792;2023-04-25T04:18:23;98181.75;;;7.99;100.00
26807;BME280;14380;49.910;6.792;2023-04-25T04:20:50;98180.72;;;7.86;100.00
26807;BME280;14380;49.910;6.792;2023-04-25T04:23:16;98179.72;;;8.04;100.00
26807;BME280;14380;49.910;6.792;2023-04-25T04:25:43;98176.69;;;8.12;100.00
26807;BME280;14380;49.910;6.792;2023-04-25T04:28:10;98185.22;;;8.00;100.00
26807;BME280;14380;49.910;6.792;2023-04-25T04:30:38;98179.78;;;7.87;100.00
26807;BME280;14380;49.910;6.792;2023-04-25T04:33:04;98180.03;;;7.82;100.00
26807;BME280;14380;49.910;6.792;2023-04-25T04:35:33;98178.19;;;7.84;100.00
26807;BME280;14380;49.910;6.792;2023-04-25T04:37:59;98180.22;;;7.95;100.00
26807;BME280;14380;49.910;6.792;2023-04-25T04:40:26;98189.72;;;7.98;100.00
26807;BME280;14380;49.910;6.792;2023-04-25T04:42:52;98186.31;;;7.96;100.00
26807;BME280;14380;49.910;6.792;2023-04-25T04:45:21;98188.13;;;8.11;100.00
26807;BME280;14380;49.910;6.792;2023-04-25T04:47:49;98191.09;;;8.05;100.00
26807;BME280;14380;49.910;6.792;2023-04-25T04:50:16;98195.41;;;8.06;100.00
26807;BME280;14380;49.910;6.792;2023-04-25T04:52:43;98199.47;;;7.96;100.00
26807;BME280;14380;49.910;6.792;2023-04-25T04:55:10;98204.81;;;7.94;100.00
26807;BME280;14380;49.910;6.792;2023-04-25T04:57:36;98203.31;;;8.06;100.00
26807;BME280;14380;49.910;6.792;2023-04-25T05:00:04;98207.91;;;8.18;100.00
26807;BME280;14380;49.910;6.792;2023-04-25T05:02:33;98205.75;;;8.09;100.00
26807;BME280;14380;49.910;6.792;2023-04-25T05:05:01;98218.75;;;8.12;100.00
26807;BME280;14380;49.910;6.792;2023-04-25T05:07:27;98222.66;;;8.21;100.00
26807;BME280;14380;49.910;6.792;2023-04-25T05:09:54;98217.31;;;8.07;100.00
26807;BME280;14380;49.910;6.792;2023-04-25T05:12:20;98226.16;;;8.22;100.00
26807;BME280;14380;49.910;6.792;2023-04-25T05:14:47;98237.66;;;8.19;100.00
26807;BME280;14380;49.910;6.792;2023-04-25T05:17:13;98224.09;;;8.11;100.00
26807;BME280;14380;49.910;6.792;2023-04-25T05:19:40;98226.81;;;8.09;100.00
26807;BME280;14380;49.910;6.792;2023-04-25T05:22:08;98233.78;;;8.26;100.00
26807;BME280;14380;49.910;6.792;2023-04-25T05:24:34;98234.38;;;8.31;100.00
26807;BME280;14380;49.910;6.792;2023-04-25T05:27:01;98239.31;;;8.38;100.00
26807;BME280;14380;49.910;6.792;2023-04-25T05:29:28;98234.31;;;8.33;100.00
26807;BME280;14380;49.910;6.792;2023-04-25T05:31:54;98244.28;;;8.42;100.00
26807;BME280;14380;49.910;6.792;2023-04-25T05:34:21;98244.72;;;8.34;100.00
26807;BME280;14380;49.910;6.792;2023-04-25T05:36:48;98247.63;;;8.30;100.00
26807;BME280;14380;49.910;6.792;2023-04-25T05:39:16;98248.91;;;8.39;100.00
26807;BME280;14380;49.910;6.792;2023-04-25T05:41:43;98251.25;;;8.27;100.00
26807;BME280;14380;49.910;6.792;2023-04-25T05:44:09;98257.22;;;8.47;100.00
26807;BME280;14380;49.910;6.792;2023-04-25T05:46:36;98263.59;;;8.43;100.00
26807;BME280;14380;49.910;6.792;2023-04-25T05:49:02;98262.94;;;8.55;100.00
26807;BME280;14380;49.910;6.792;2023-04-25T05:51:29;98257.38;;;8.44;100.00
26807;BME280;14380;49.910;6.792;2023-04-25T05:53:56;98260.91;;;8.60;100.00
26807;BME280;14380;49.910;6.792;2023-04-25T05:56:24;98264.19;;;8.48;100.00
26807;BME280;14380;49.910;6.792;2023-04-25T05:58:51;98259.38;;;8.56;100.00
26807;BME280;14380;49.910;6.792;2023-04-25T06:01:17;98265.16;;;8.63;100.00
26807;BME280;14380;49.910;6.792;2023-04-25T06:03:44;98263.94;;;8.69;100.00
26807;BME280;14380;49.910;6.792;2023-04-25T06:06:11;98273.19;;;8.76;100.00
26807;BME280;14380;49.910;6.792;2023-04-25T06:08:38;98275.75;;;8.77;100.00
26807;BME280;14380;49.910;6.792;2023-04-25T06:11:04;98279.50;;;8.73;100.00
26807;BME280;14380;49.910;6.792;2023-04-25T06:13:32;98279.78;;;8.35;100.00
26807;BME280;14380;49.910;6.792;2023-04-25T06:15:59;98285.16;;;8.50;100.00
26807;BME280;14380;49.910;6.792;2023-04-25T06:18:25;98283.13;;;8.71;100.00
26807;BME280;14380;49.910;6.792;2023-04-25T06:20:52;98293.59;;;8.56;100.00
26807;BME280;14380;49.910;6.792;2023-04-25T06:23:18;98284.75;;;8.73;100.00
26807;BME280;14380;49.910;6.792;2023-04-25T06:25:45;98295.19;;;8.59;100.00
26807;BME280;14380;49.910;6.792;2023-04-25T06:28:12;98297.16;;;8.55;100.00
26807;BME280;14380;49.910;6.792;2023-04-25T06:30:40;98292.88;;;8.53;100.00
26807;BME280;14380;49.910;6.792;2023-04-25T06:33:06;98298.38;;;8.32;100.00
26807;BME280;14380;49.910;6.792;2023-04-25T06:35:33;98300.19;;;8.14;100.00
26807;BME280;14380;49.910;6.792;2023-04-25T06:38:00;98300.31;;;8.44;100.00
26807;BME280;14380;49.910;6.792;2023-04-25T06:40:27;98299.38;;;8.29;100.00
26807;BME280;14380;49.910;6.792;2023-04-25T06:42:53;98307.69;;;8.38;100.00
26807;BME280;14380;49.910;6.792;2023-04-25T06:45:20;98315.47;;;8.57;100.00
26807;BME280;14380;49.910;6.792;2023-04-25T06:47:47;98323.22;;;8.42;100.00
26807;BME280;14380;49.910;6.792;2023-04-25T06:50:14;98317.09;;;8.59;100.00
26807;BME280;14380;49.910;6.792;2023-04-25T06:52:41;98314.63;;;8.56;100.00
26807;BME280;14380;49.910;6.792;2023-04-25T06:55:08;98318.88;;;8.59;100.00
26807;BME280;14380;49.910;6.792;2023-04-25T06:57:35;98319.53;;;8.62;100.00
26807;BME280;14380;49.910;6.792;2023-04-25T07:00:01;98338.47;;;8.19;100.00
26807;BME280;14380;49.910;6.792;2023-04-25T07:02:30;98333.06;;;8.39;100.00
26807;BME280;14380;49.910;6.792;2023-04-25T07:04:58;98340.00;;;8.24;100.00
26807;BME280;14380;49.910;6.792;2023-04-25T07:07:25;98338.47;;;8.19;100.00
26807;BME280;14380;49.910;6.792;2023-04-25T07:09:51;98337.50;;;8.38;100.00
26807;BME280;14380;49.910;6.792;2023-04-25T07:12:18;98336.59;;;8.22;100.00
26807;BME280;14380;49.910;6.792;2023-04-25T07:14:45;98340.44;;;8.32;100.00
26807;BME280;14380;49.910;6.792;2023-04-25T07:17:11;98347.22;;;8.02;100.00
26807;BME280;14380;49.910;6.792;2023-04-25T07:19:38;98355.34;;;7.80;100.00
26807;BME280;14380;49.910;6.792;2023-04-25T07:22:06;98363.84;;;7.50;100.00
26807;BME280;14380;49.910;6.792;2023-04-25T07:24:33;98371.34;;;7.93;100.00
26807;BME280;14380;49.910;6.792;2023-04-25T07:26:59;98364.06;;;8.16;100.00
26807;BME280;14380;49.910;6.792;2023-04-25T07:29:27;98370.13;;;8.00;100.00
26807;BME280;14380;49.910;6.792;2023-04-25T07:31:55;98370.56;;;7.73;100.00
26807;BME280;14380;49.910;6.792;2023-04-25T07:34:21;98379.38;;;7.90;100.00
26807;BME280;14380;49.910;6.792;2023-04-25T07:36:48;98375.38;;;8.00;100.00
26807;BME280;14380;49.910;6.792;2023-04-25T07:39:16;98384.88;;;7.85;100.00
26807;BME280;14380;49.910;6.792;2023-04-25T07:41:42;98381.41;;;7.85;100.00
26807;BME280;14380;49.910;6.792;2023-04-25T07:44:09;98388.91;;;7.93;100.00
26807;BME280;14380;49.910;6.792;2023-04-25T07:46:35;98396.56;;;7.97;100.00
26807;BME280;14380;49.910;6.792;2023-04-25T07:49:02;98385.88;;;7.83;100.00
26807;BME280;14380;49.910;6.792;2023-04-25T07:51:28;98392.38;;;8.11;100.00
26807;BME280;14380;49.910;6.792;2023-04-25T07:53:55;98390.75;;;8.08;100.00
26807;BME280;14380;49.910;6.792;2023-04-25T07:56:23;98388.63;;;8.32;100.00
26807;BME280;14380;49.910;6.792;2023-04-25T07:58:49;98399.78;;;8.20;100.00
26807;BME280;14380;49.910;6.792;2023-04-25T08:01:16;98401.91;;;8.47;100.00
26807;BME280;14380;49.910;6.792;2023-04-25T08:03:42;98419.13;;;8.54;100.00
26807;BME280;14380;49.910;6.792;2023-04-25T08:06:09;98416.72;;;8.50;100.00
26807;BME280;14380;49.910;6.792;2023-04-25T08:08:36;98416.56;;;8.53;100.00
26807;BME280;14380;49.910;6.792;2023-04-25T08:11:03;98416.91;;;8.62;100.00
26807;BME280;14380;49.910;6.792;2023-04-25T08:13:30;98415.44;;;8.74;100.00
26807;BME280;14380;49.910;6.792;2023-04-25T08:15:57;98422.59;;;8.88;100.00
26807;BME280;14380;49.910;6.792;2023-04-25T08:18:23;98427.44;;;9.12;100.00
26807;BME280;14380;49.910;6.792;2023-04-25T08:20:50;98433.06;;;9.22;100.00
26807;BME280;14380;49.910;6.792;2023-04-25T08:23:16;98445.38;;;9.21;100.00
26807;BME280;14380;49.910;6.792;2023-04-25T08:25:43;98445.63;;;9.49;100.00
26807;BME280;14380;49.910;6.792;2023-04-25T08:28:10;98447.84;;;9.41;100.00
26807;BME280;14380;49.910;6.792;2023-04-25T08:30:37;98448.00;;;9.70;100.00
26807;BME280;14380;49.910;6.792;2023-04-25T08:33:04;98456.66;;;9.88;100.00
26807;BME280;14380;49.910;6.792;2023-04-25T08:35:31;98452.50;;;9.19;99.82
26807;BME280;14380;49.910;6.792;2023-04-25T08:37:58;98456.72;;;8.90;99.17
26807;BME280;14380;49.910;6.792;2023-04-25T08:40:27;98452.69;;;9.16;99.52
26807;BME280;14380;49.910;6.792;2023-04-25T08:42:57;98460.06;;;9.10;100.00
26807;BME280;14380;49.910;6.792;2023-04-25T08:45:24;98455.59;;;9.44;100.00
26807;BME280;14380;49.910;6.792;2023-04-25T08:47:54;98457.38;;;9.43;99.15
26807;BME280;14380;49.910;6.792;2023-04-25T08:50:23;98461.72;;;9.44;100.00
26807;BME280;14380;49.910;6.792;2023-04-25T08:52:53;98460.69;;;9.47;100.00
26807;BME280;14380;49.910;6.792;2023-04-25T08:55:21;98468.31;;;9.51;100.00
26807;BME280;14380;49.910;6.792;2023-04-25T08:57:49;98477.75;;;9.40;100.00
26807;BME280;14380;49.910;6.792;2023-04-25T09:00:17;98481.66;;;9.16;100.00
26807;BME280;14380;49.910;6.792;2023-04-25T09:02:46;98476.75;;;9.58;100.00
26807;BME280;14380;49.910;6.792;2023-04-25T09:05:14;98481.75;;;9.63;100.00
26807;BME280;14380;49.910;6.792;2023-04-25T09:07:41;98496.41;;;9.69;100.00
26807;BME280;14380;49.910;6.792;2023-04-25T09:10:08;98505.16;;;9.69;100.00
26807;BME280;14380;49.910;6.792;2023-04-25T09:12:35;98513.38;;;9.63;100.00
26807;BME280;14380;49.910;6.792;2023-04-25T09:15:04;98510.75;;;9.47;100.00
26807;BME280;14380;49.910;6.792;2023-04-25T09:17:31;98508.53;;;9.39;98.64
26807;BME280;14380;49.910;6.792;2023-04-25T09:20:08;98506.19;;;9.66;100.00
26807;BME280;14380;49.910;6.792;2023-04-25T09:22:37;98506.00;;;9.70;96.75
26807;BME280;14380;49.910;6.792;2023-04-25T09:25:08;98514.66;;;9.88;100.00
26807;BME280;14380;49.910;6.792;2023-04-25T09:27:35;98509.72;;;9.97;100.00
26807;BME280;14380;49.910;6.792;2023-04-25T09:30:02;98515.81;;;10.14;98.97
26807;BME280;14380;49.910;6.792;2023-04-25T09:32:30;98511.66;;;9.94;96.04
26807;BME280;14380;49.910;6.792;2023-04-25T09:34:57;98519.97;;;10.18;98.44
26807;BME280;14380;49.910;6.792;2023-04-25T09:37:25;98519.34;;;9.82;95.13
26807;BME280;14380;49.910;6.792;2023-04-25T09:39:55;98523.91;;;10.11;98.85
26807;BME280;14380;49.910;6.792;2023-04-25T09:42:24;98529.19;;;9.79;93.48
26807;BME280;14380;49.910;6.792;2023-04-25T09:44:52;98529.75;;;10.16;96.95
26807;BME280;14380;49.910;6.792;2023-04-25T09:47:18;98527.41;;;9.95;90.82
26807;BME280;14380;49.910;6.792;2023-04-25T09:49:47;98537.97;;;9.95;91.28
26807;BME280;14380;49.910;6.792;2023-04-25T09:52:15;98532.59;;;9.81;94.85
26807;BME280;14380;49.910;6.792;2023-04-25T09:54:42;98544.25;;;10.09;94.05
26807;BME280;14380;49.910;6.792;2023-04-25T09:57:12;98537.34;;;10.06;94.15
26807;BME280;14380;49.910;6.792;2023-04-25T09:59:43;98546.16;;;10.21;96.60
26807;BME280;14380;49.910;6.792;2023-04-25T10:02:10;98553.34;;;9.87;90.00
26807;BME280;14380;49.910;6.792;2023-04-25T10:04:38;98557.69;;;9.72;93.20
26807;BME280;14380;49.910;6.792;2023-04-25T10:07:06;98561.28;;;9.71;91.21
26807;BME280;14380;49.910;6.792;2023-04-25T10:09:33;98560.66;;;9.66;85.49
26807;BME280;14380;49.910;6.792;2023-04-25T10:12:00;98556.25;;;9.99;86.95
26807;BME280;14380;49.910;6.792;2023-04-25T10:14:29;98556.72;;;10.21;90.39
26807;BME280;14380;49.910;6.792;2023-04-25T10:16:57;98560.41;;;10.19;88.84
26807;BME280;14380;49.910;6.792;2023-04-25T10:19:24;98558.75;;;10.16;89.06
26807;BME280;14380;49.910;6.792;2023-04-25T10:21:52;98556.69;;;10.07;85.66
26807;BME280;14380;49.910;6.792;2023-04-25T10:24:20;98557.53;;;10.84;85.60
26807;BME280;14380;49.910;6.792;2023-04-25T10:26:47;98556.22;;;11.06;82.56
26807;BME280;14380;49.910;6.792;2023-04-25T10:29:21;98558.59;;;11.25;83.49
26807;BME280;14380;49.910;6.792;2023-04-25T10:31:50;98566.16;;;10.72;80.58
26807;BME280;14380;49.910;6.792;2023-04-25T10:34:17;98560.28;;;11.12;82.82
26807;BME280;14380;49.910;6.792;2023-04-25T10:36:49;98569.44;;;10.61;83.58
26807;BME280;14380;49.910;6.792;2023-04-25T10:39:22;98567.22;;;10.69;79.85
26807;BME280;14380;49.910;6.792;2023-04-25T10:41:53;98570.69;;;10.70;83.64
26807;BME280;14380;49.910;6.792;2023-04-25T10:44:21;98573.69;;;10.64;82.43
26807;BME280;14380;49.910;6.792;2023-04-25T10:46:49;98578.47;;;9.94;81.17
26807;BME280;14380;49.910;6.792;2023-04-25T10:49:29;98573.06;;;10.28;81.84
26807;BME280;14380;49.910;6.792;2023-04-25T10:52:16;98570.25;;;10.92;82.72
26807;BME280;14380;49.910;6.792;2023-04-25T10:54:46;98567.72;;;10.91;84.34
26807;BME280;14380;49.910;6.792;2023-04-25T10:57:29;98545.94;;;11.45;83.26
26807;BME280;14380;49.910;6.792;2023-04-25T11:00:01;98554.53;;;11.34;82.92
26807;BME280;14380;49.910;6.792;2023-04-25T11:02:32;98558.25;;;11.88;83.61
26807;BME280;14380;49.910;6.792;2023-04-25T11:04:59;98555.09;;;11.25;78.75
26807;BME280;14380;49.910;6.792;2023-04-25T11:07:33;98555.13;;;11.81;80.68
26807;BME280;14380;49.910;6.792;2023-04-25T11:10:01;98553.72;;;11.90;83.10
26807;BME280;14380;49.910;6.792;2023-04-25T11:12:29;98557.69;;;11.83;80.17
26807;BME280;14380;49.910;6.792;2023-04-25T11:15:00;98562.69;;;11.87;78.09
26807;BME280;14380;49.910;6.792;2023-04-25T11:17:27;98568.94;;;11.72;80.57
26807;BME280;14380;49.910;6.792;2023-04-25T11:19:55;98568.22;;;11.70;83.55
26807;BME280;14380;49.910;6.792;2023-04-25T11:22:22;98574.16;;;11.30;77.66
26807;BME280;14380;49.910;6.792;2023-04-25T11:24:49;98569.25;;;11.09;80.79
26807;BME280;14380;49.910;6.792;2023-04-25T11:27:16;98563.59;;;11.01;75.83
26807;BME280;14380;49.910;6.792;2023-04-25T11:29:43;98577.81;;;10.98;79.07
26807;BME280;14380;49.910;6.792;2023-04-25T11:32:10;98577.06;;;10.96;78.00
26807;BME280;14380;49.910;6.792;2023-04-25T11:34:36;98577.47;;;11.63;79.66
26807;BME280;14380;49.910;6.792;2023-04-25T11:37:04;98574.63;;;12.62;79.26
26807;BME280;14380;49.910;6.792;2023-04-25T11:39:31;98576.25;;;12.38;77.80
26807;BME280;14380;49.910;6.792;2023-04-25T11:41:58;98582.56;;;12.49;75.50
26807;BME280;14380;49.910;6.792;2023-04-25T11:44:26;98581.44;;;11.97;77.03
26807;BME280;14380;49.910;6.792;2023-04-25T11:46:52;98581.16;;;11.45;75.61
26807;BME280;14380;49.910;6.792;2023-04-25T11:49:19;98571.03;;;11.67;80.22
26807;BME280;14380;49.910;6.792;2023-04-25T11:51:47;98566.78;;;11.50;77.04
26807;BME280;14380;49.910;6.792;2023-04-25T11:54:16;98577.25;;;11.80;76.98
26807;BME280;14380;49.910;6.792;2023-04-25T11:56:43;98577.34;;;11.50;76.22
26807;BME280;14380;49.910;6.792;2023-04-25T11:59:10;98580.56;;;11.55;71.71
26807;BME280;14380;49.910;6.792;2023-04-25T12:01:40;98582.72;;;12.06;74.36
26807;BME280;14380;49.910;6.792;2023-04-25T12:04:11;98581.22;;;12.29;73.80
26807;BME280;14380;49.910;6.792;2023-04-25T12:06:38;98589.44;;;11.54;69.03
26807;BME280;14380;49.910;6.792;2023-04-25T12:09:08;98581.00;;;12.05;71.48
26807;BME280;14380;49.910;6.792;2023-04-25T12:11:42;98581.31;;;11.71;69.26
26807;BME280;14380;49.910;6.792;2023-04-25T12:14:09;98573.19;;;12.84;69.52
26807;BME280;14380;49.910;6.792;2023-04-25T12:16:42;98575.84;;;12.44;71.02
26807;BME280;14380;49.910;6.792;2023-04-25T12:19:09;98576.16;;;12.39;68.21
26807;BME280;14380;49.910;6.792;2023-04-25T12:21:36;98577.06;;;12.25;69.87
26807;BME280;14380;49.910;6.792;2023-04-25T12:24:10;98582.03;;;12.57;71.18
26807;BME280;14380;49.910;6.792;2023-04-25T12:26:52;98582.91;;;12.58;70.36
26807;BME280;14380;49.910;6.792;2023-04-25T12:29:20;98586.94;;;12.76;73.45
26807;BME280;14380;49.910;6.792;2023-04-25T12:31:47;98600.47;;;11.89;69.71
26807;BME280;14380;49.910;6.792;2023-04-25T12:34:14;98604.13;;;10.85;70.54
26807;BME280;14380;49.910;6.792;2023-04-25T12:36:41;98604.47;;;11.39;69.72
26807;BME280;14380;49.910;6.792;2023-04-25T12:39:07;98603.25;;;11.59;72.59
26807;BME280;14380;49.910;6.792;2023-04-25T12:41:35;98602.84;;;11.80;70.62
26807;BME280;14380;49.910;6.792;2023-04-25T12:44:04;98607.47;;;11.76;71.68
26807;BME280;14380;49.910;6.792;2023-04-25T12:46:30;98618.91;;;11.62;74.12
26807;BME280;14380;49.910;6.792;2023-04-25T12:48:57;98616.66;;;11.41;69.73
26807;BME280;14380;49.910;6.792;2023-04-25T12:51:23;98622.91;;;11.40;72.73
26807;BME280;14380;49.910;6.792;2023-04-25T12:53:51;98620.41;;;11.52;72.36
26807;BME280;14380;49.910;6.792;2023-04-25T12:56:18;98624.97;;;11.35;73.10
26807;BME280;14380;49.910;6.792;2023-04-25T12:58:45;98628.00;;;11.43;74.47
26807;BME280;14380;49.910;6.792;2023-04-25T13:01:13;98629.22;;;11.52;71.27